sensor_id;sensor_type;location;lat;lon;timestamp;P1;durP1;ratioP1;P2;durP2;ratioP2
19802;SDS011;66074;50.764;6.090;2023-06-22T00:01:04;0.73;;;0.50;;
19802;SDS011;66074;50.764;6.090;2023-06-22T00:03:30;0.75;;;0.75;;
19802;SDS011;66074;50.764;6.090;2023-06-22T00:05:55;0.50;;;0.50;;
19802;SDS011;66074;50.764;6.090;2023-06-22T00:08:21;0.50;;;0.50;;
19802;SDS011;66074;50.764;6.090;2023-06-22T00:10:47;0.43;;;0.43;;
19802;SDS011;66074;50.764;6.090;2023-06-22T00:13:13;0.43;;;0.32;;
19802;SDS011;66074;50.764;6.090;2023-06-22T00:15:40;0.45;;;0.20;;
19802;SDS011;66074;50.764;6.090;2023-06-22T00:18:06;0.68;;;0.40;;
19802;SDS011;66074;50.764;6.090;2023-06-22T00:20:33;4.90;;;0.90;;
19802;SDS011;66074;50.764;6.090;2023-06-22T00:23:02;0.82;;;0.50;;
19802;SDS011;66074;50.764;6.090;2023-06-22T00:25:35;3.33;;;1.13;;
19802;SDS011;66074;50.764;6.090;2023-06-22T00:28:02;0.68;;;0.55;;
19802;SDS011;66074;50.764;6.090;2023-06-22T00:30:28;0.40;;;0.32;;
19802;SDS011;66074;50.764;6.090;2023-06-22T00:32:55;1.42;;;0.80;;
19802;SDS011;66074;50.764;6.090;2023-06-22T00:35:20;1.08;;;0.80;;
19802;SDS011;66074;50.764;6.090;2023-06-22T00:37:46;0.85;;;0.65;;
19802;SDS011;66074;50.764;6.090;2023-06-22T00:40:12;0.38;;;0.35;;
19802;SDS011;66074;50.764;6.090;2023-06-22T00:42:39;0.40;;;0.40;;
19802;SDS011;66074;50.764;6.090;2023-06-22T00:45:06;0.40;;;0.40;;
19802;SDS011;66074;50.764;6.090;2023-06-22T00:47:35;3.13;;;0.98;;
19802;SDS011;66074;50.764;6.090;2023-06-22T00:50:03;0.70;;;0.57;;
19802;SDS011;66074;50.764;6.090;2023-06-22T00:52:32;0.70;;;0.70;;
19802;SDS011;66074;50.764;6.090;2023-06-22T00:55:00;0.45;;;0.38;;
19802;SDS011;66074;50.764;6.090;2023-06-22T00:57:27;0.82;;;0.70;;
19802;SDS011;66074;50.764;6.090;2023-06-22T00:59:53;0.82;;;0.40;;
19802;SDS011;66074;50.764;6.090;2023-06-22T01:02:19;0.38;;;0.38;;
19802;SDS011;66074;50.764;6.090;2023-06-22T01:04:45;0.52;;;0.52;;
19802;SDS011;66074;50.764;6.090;2023-06-22T01:07:23;0.93;;;0.80;;
19802;SDS011;66074;50.764;6.090;2023-06-22T01:12:43;0.90;;;0.70;;
19802;SDS011;66074;50.764;6.090;2023-06-22T01:15:14;1.65;;;0.60;;
19802;SDS011;66074;50.764;6.090;2023-06-22T01:17:44;1.40;;;1.30;;
19802;SDS011;66074;50.764;6.090;2023-06-22T01:20:12;0.60;;;0.50;;
19802;SDS011;66074;50.764;6.090;2023-06-22T01:22:52;0.80;;;0.70;;
19802;SDS011;66074;50.764;6.090;2023-06-22T01:25:48;1.38;;;0.82;;
19802;SDS011;66074;50.764;6.090;2023-06-22T01:28:43;1.55;;;0.70;;
19802;SDS011;66074;50.764;6.090;2023-06-22T01:31:17;0.65;;;0.63;;
19802;SDS011;66074;50.764;6.090;2023-06-22T01:33:46;0.52;;;0.45;;
19802;SDS011;66074;50.764;6.090;2023-06-22T01:36:14;0.10;;;0.10;;
19802;SDS011;66074;50.764;6.090;2023-06-22T01:38:42;0.95;;;0.65;;
19802;SDS011;66074;50.764;6.090;2023-06-22T01:41:11;0.17;;;0.17;;
19802;SDS011;66074;50.764;6.090;2023-06-22T01:43:37;0.45;;;0.45;;
19802;SDS011;66074;50.764;6.090;2023-06-22T01:46:03;0.45;;;0.30;;
19802;SDS011;66074;50.764;6.090;2023-06-22T01:48:29;0.43;;;0.43;;
19802;SDS011;66074;50.764;6.090;2023-06-22T01:50:56;0.40;;;0.40;;
19802;SDS011;66074;50.764;6.090;2023-06-22T01:53:22;0.73;;;0.70;;
19802;SDS011;66074;50.764;6.090;2023-06-22T01:55:48;0.63;;;0.40;;
19802;SDS011;66074;50.764;6.090;2023-06-22T01:58:14;1.15;;;0.68;;
19802;SDS011;66074;50.764;6.090;2023-06-22T02:00:40;1.27;;;0.70;;
19802;SDS011;66074;50.764;6.090;2023-06-22T02:03:19;0.60;;;0.60;;
19802;SDS011;66074;50.764;6.090;2023-06-22T02:06:04;0.63;;;0.50;;
19802;SDS011;66074;50.764;6.090;2023-06-22T02:08:44;0.63;;;0.52;;
19802;SDS011;66074;50.764;6.090;2023-06-22T02:11:13;0.63;;;0.55;;
19802;SDS011;66074;50.764;6.090;2023-06-22T02:13:41;0.50;;;0.40;;
19802;SDS011;66074;50.764;6.090;2023-06-22T02:16:08;0.63;;;0.60;;
19802;SDS011;66074;50.764;6.090;2023-06-22T02:18:36;0.55;;;0.55;;
19802;SDS011;66074;50.764;6.090;2023-06-22T02:21:02;1.98;;;0.80;;
19802;SDS011;66074;50.764;6.090;2023-06-22T02:23:28;0.60;;;0.60;;
19802;SDS011;66074;50.764;6.090;2023-06-22T02:25:53;1.30;;;0.43;;
19802;SDS011;66074;50.764;6.090;2023-06-22T02:28:19;0.22;;;0.22;;
19802;SDS011;66074;50.764;6.090;2023-06-22T02:30:44;0.98;;;0.60;;
19802;SDS011;66074;50.764;6.090;2023-06-22T02:33:10;0.30;;;0.30;;
19802;SDS011;66074;50.764;6.090;2023-06-22T02:35:36;0.30;;;0.30;;
19802;SDS011;66074;50.764;6.090;2023-06-22T02:38:02;1.08;;;0.60;;
19802;SDS011;66074;50.764;6.090;2023-06-22T02:40:29;0.50;;;0.50;;
19802;SDS011;66074;50.764;6.090;2023-06-22T02:42:55;1.83;;;0.65;;
19802;SDS011;66074;50.764;6.090;2023-06-22T02:45:23;2.03;;;0.60;;
19802;SDS011;66074;50.764;6.090;2023-06-22T02:47:49;0.75;;;0.75;;
19802;SDS011;66074;50.764;6.090;2023-06-22T02:50:14;0.55;;;0.55;;
19802;SDS011;66074;50.764;6.090;2023-06-22T02:52:40;1.08;;;0.77;;
19802;SDS011;66074;50.764;6.090;2023-06-22T02:55:06;0.40;;;0.40;;
19802;SDS011;66074;50.764;6.090;2023-06-22T02:57:33;0.45;;;0.35;;
19802;SDS011;66074;50.764;6.090;2023-06-22T02:59:59;0.43;;;0.28;;
19802;SDS011;66074;50.764;6.090;2023-06-22T03:02:24;0.70;;;0.70;;
19802;SDS011;66074;50.764;6.090;2023-06-22T03:04:51;0.32;;;0.32;;
19802;SDS011;66074;50.764;6.090;2023-06-22T03:07:19;0.65;;;0.65;;
19802;SDS011;66074;50.764;6.090;2023-06-22T03:09:45;1.75;;;1.20;;
19802;SDS011;66074;50.764;6.090;2023-06-22T03:12:11;1.25;;;1.15;;
19802;SDS011;66074;50.764;6.090;2023-06-22T03:14:37;0.75;;;0.73;;
19802;SDS011;66074;50.764;6.090;2023-06-22T03:17:04;1.02;;;0.82;;
19802;SDS011;66074;50.764;6.090;2023-06-22T03:19:30;0.75;;;0.70;;
19802;SDS011;66074;50.764;6.090;2023-06-22T03:21:59;1.25;;;1.00;;
19802;SDS011;66074;50.764;6.090;2023-06-22T03:24:25;0.40;;;0.40;;
19802;SDS011;66074;50.764;6.090;2023-06-22T03:26:53;1.27;;;0.80;;
19802;SDS011;66074;50.764;6.090;2023-06-22T03:29:19;1.40;;;1.20;;
19802;SDS011;66074;50.764;6.090;2023-06-22T03:31:45;1.17;;;0.82;;
19802;SDS011;66074;50.764;6.090;2023-06-22T03:34:11;1.08;;;0.85;;
19802;SDS011;66074;50.764;6.090;2023-06-22T03:36:36;2.15;;;1.10;;
19802;SDS011;66074;50.764;6.090;2023-06-22T03:39:02;1.38;;;0.75;;
19802;SDS011;66074;50.764;6.090;2023-06-22T03:41:28;1.08;;;0.80;;
19802;SDS011;66074;50.764;6.090;2023-06-22T03:43:53;0.52;;;0.50;;
19802;SDS011;66074;50.764;6.090;2023-06-22T03:46:19;0.63;;;0.40;;
19802;SDS011;66074;50.764;6.090;2023-06-22T03:48:45;1.65;;;1.08;;
19802;SDS011;66074;50.764;6.090;2023-06-22T03:51:10;2.50;;;1.17;;
19802;SDS011;66074;50.764;6.090;2023-06-22T03:53:36;0.77;;;0.57;;
19802;SDS011;66074;50.764;6.090;2023-06-22T03:56:02;1.63;;;0.60;;
19802;SDS011;66074;50.764;6.090;2023-06-22T03:58:28;1.08;;;0.73;;
19802;SDS011;66074;50.764;6.090;2023-06-22T04:00:57;1.73;;;1.02;;
19802;SDS011;66074;50.764;6.090;2023-06-22T04:03:23;1.35;;;0.55;;
19802;SDS011;66074;50.764;6.090;2023-06-22T04:05:48;0.70;;;0.60;;
19802;SDS011;66074;50.764;6.090;2023-06-22T04:08:15;6.70;;;0.98;;
19802;SDS011;66074;50.764;6.090;2023-06-22T04:10:41;0.60;;;0.60;;
19802;SDS011;66074;50.764;6.090;2023-06-22T04:13:07;1.52;;;0.55;;
19802;SDS011;66074;50.764;6.090;2023-06-22T04:15:33;0.65;;;0.52;;
19802;SDS011;66074;50.764;6.090;2023-06-22T04:17:58;0.75;;;0.75;;
19802;SDS011;66074;50.764;6.090;2023-06-22T04:20:24;0.63;;;0.63;;
19802;SDS011;66074;50.764;6.090;2023-06-22T04:22:52;0.57;;;0.40;;
19802;SDS011;66074;50.764;6.090;2023-06-22T04:25:21;1.25;;;0.65;;
19802;SDS011;66074;50.764;6.090;2023-06-22T04:27:47;0.68;;;0.68;;
19802;SDS011;66074;50.764;6.090;2023-06-22T04:30:13;1.50;;;0.80;;
19802;SDS011;66074;50.764;6.090;2023-06-22T04:32:41;0.55;;;0.55;;
19802;SDS011;66074;50.764;6.090;2023-06-22T04:35:07;0.93;;;0.60;;
19802;SDS011;66074;50.764;6.090;2023-06-22T04:37:33;0.40;;;0.40;;
19802;SDS011;66074;50.764;6.090;2023-06-22T04:39:59;1.73;;;0.82;;
19802;SDS011;66074;50.764;6.090;2023-06-22T04:42:28;0.82;;;0.82;;
19802;SDS011;66074;50.764;6.090;2023-06-22T04:44:54;1.40;;;0.73;;
19802;SDS011;66074;50.764;6.090;2023-06-22T04:47:19;0.70;;;0.45;;
19802;SDS011;66074;50.764;6.090;2023-06-22T04:49:45;0.98;;;0.80;;
19802;SDS011;66074;50.764;6.090;2023-06-22T04:52:12;0.85;;;0.77;;
19802;SDS011;66074;50.764;6.090;2023-06-22T04:54:39;0.82;;;0.50;;
19802;SDS011;66074;50.764;6.090;2023-06-22T04:57:12;0.25;;;0.20;;
19802;SDS011;66074;50.764;6.090;2023-06-22T04:59:38;0.95;;;0.52;;
19802;SDS011;66074;50.764;6.090;2023-06-22T05:02:06;0.90;;;0.63;;
19802;SDS011;66074;50.764;6.090;2023-06-22T05:04:33;0.57;;;0.43;;
19802;SDS011;66074;50.764;6.090;2023-06-22T05:07:00;0.88;;;0.68;;
19802;SDS011;66074;50.764;6.090;2023-06-22T05:09:29;0.95;;;0.52;;
19802;SDS011;66074;50.764;6.090;2023-06-22T05:11:58;1.08;;;0.45;;
19802;SDS011;66074;50.764;6.090;2023-06-22T05:14:27;0.55;;;0.40;;
19802;SDS011;66074;50.764;6.090;2023-06-22T05:16:52;0.55;;;0.47;;
19802;SDS011;66074;50.764;6.090;2023-06-22T05:19:18;1.20;;;0.90;;
19802;SDS011;66074;50.764;6.090;2023-06-22T05:21:44;2.17;;;0.38;;
19802;SDS011;66074;50.764;6.090;2023-06-22T05:24:10;2.05;;;0.60;;
19802;SDS011;66074;50.764;6.090;2023-06-22T05:26:36;1.20;;;0.35;;
19802;SDS011;66074;50.764;6.090;2023-06-22T05:29:02;0.40;;;0.40;;
19802;SDS011;66074;50.764;6.090;2023-06-22T05:31:28;0.38;;;0.38;;
19802;SDS011;66074;50.764;6.090;2023-06-22T05:33:54;0.40;;;0.30;;
19802;SDS011;66074;50.764;6.090;2023-06-22T05:36:21;1.40;;;1.00;;
19802;SDS011;66074;50.764;6.090;2023-06-22T05:38:50;0.80;;;0.50;;
19802;SDS011;66074;50.764;6.090;2023-06-22T05:41:21;0.77;;;0.77;;
19802;SDS011;66074;50.764;6.090;2023-06-22T05:43:47;0.60;;;0.50;;
19802;SDS011;66074;50.764;6.090;2023-06-22T05:46:12;0.30;;;0.30;;
19802;SDS011;66074;50.764;6.090;2023-06-22T05:48:38;1.38;;;0.45;;
19802;SDS011;66074;50.764;6.090;2023-06-22T05:51:04;1.38;;;0.52;;
19802;SDS011;66074;50.764;6.090;2023-06-22T05:53:29;1.23;;;1.13;;
19802;SDS011;66074;50.764;6.090;2023-06-22T05:55:55;0.85;;;0.40;;
19802;SDS011;66074;50.764;6.090;2023-06-22T05:58:21;0.95;;;0.70;;
19802;SDS011;66074;50.764;6.090;2023-06-22T06:00:46;0.82;;;0.52;;
19802;SDS011;66074;50.764;6.090;2023-06-22T06:03:12;0.50;;;0.50;;
19802;SDS011;66074;50.764;6.090;2023-06-22T06:05:42;1.85;;;1.00;;
19802;SDS011;66074;50.764;6.090;2023-06-22T06:08:09;0.63;;;0.63;;
19802;SDS011;66074;50.764;6.090;2023-06-22T06:10:36;0.60;;;0.40;;
19802;SDS011;66074;50.764;6.090;2023-06-22T06:13:02;1.17;;;0.50;;
19802;SDS011;66074;50.764;6.090;2023-06-22T06:15:29;0.20;;;0.20;;
19802;SDS011;66074;50.764;6.090;2023-06-22T06:17:58;1.92;;;0.77;;
19802;SDS011;66074;50.764;6.090;2023-06-22T06:20:25;0.70;;;0.70;;
19802;SDS011;66074;50.764;6.090;2023-06-22T06:22:52;0.50;;;0.50;;
19802;SDS011;66074;50.764;6.090;2023-06-22T06:25:18;0.30;;;0.30;;
19802;SDS011;66074;50.764;6.090;2023-06-22T06:27:47;2.30;;;1.05;;
19802;SDS011;66074;50.764;6.090;2023-06-22T06:30:14;0.93;;;0.50;;
19802;SDS011;66074;50.764;6.090;2023-06-22T06:32:41;0.68;;;0.50;;
19802;SDS011;66074;50.764;6.090;2023-06-22T06:35:07;2.45;;;1.13;;
19802;SDS011;66074;50.764;6.090;2023-06-22T06:37:38;0.55;;;0.50;;
19802;SDS011;66074;50.764;6.090;2023-06-22T06:40:08;1.58;;;1.15;;
19802;SDS011;66074;50.764;6.090;2023-06-22T06:42:38;0.70;;;0.40;;
19802;SDS011;66074;50.764;6.090;2023-06-22T06:45:10;1.00;;;0.93;;
19802;SDS011;66074;50.764;6.090;2023-06-22T06:47:37;1.98;;;0.63;;
19802;SDS011;66074;50.764;6.090;2023-06-22T06:50:04;0.60;;;0.60;;
19802;SDS011;66074;50.764;6.090;2023-06-22T06:52:30;0.88;;;0.65;;
19802;SDS011;66074;50.764;6.090;2023-06-22T06:54:56;2.88;;;1.33;;
19802;SDS011;66074;50.764;6.090;2023-06-22T06:57:21;0.57;;;0.45;;
19802;SDS011;66074;50.764;6.090;2023-06-22T06:59:48;3.42;;;1.73;;
19802;SDS011;66074;50.764;6.090;2023-06-22T07:02:14;0.55;;;0.55;;
19802;SDS011;66074;50.764;6.090;2023-06-22T07:04:40;0.40;;;0.40;;
19802;SDS011;66074;50.764;6.090;2023-06-22T07:07:06;2.22;;;1.08;;
19802;SDS011;66074;50.764;6.090;2023-06-22T07:09:32;1.30;;;0.70;;
19802;SDS011;66074;50.764;6.090;2023-06-22T07:11:58;3.58;;;1.10;;
19802;SDS011;66074;50.764;6.090;2023-06-22T07:14:24;0.50;;;0.50;;
19802;SDS011;66074;50.764;6.090;2023-06-22T07:16:49;0.63;;;0.60;;
19802;SDS011;66074;50.764;6.090;2023-06-22T07:19:15;0.82;;;0.63;;
19802;SDS011;66074;50.764;6.090;2023-06-22T07:21:41;0.57;;;0.57;;
19802;SDS011;66074;50.764;6.090;2023-06-22T07:24:06;1.30;;;0.93;;
19802;SDS011;66074;50.764;6.090;2023-06-22T07:26:33;0.85;;;0.63;;
19802;SDS011;66074;50.764;6.090;2023-06-22T07:28:59;0.88;;;0.77;;
19802;SDS011;66074;50.764;6.090;2023-06-22T07:31:25;1.23;;;1.00;;
19802;SDS011;66074;50.764;6.090;2023-06-22T07:33:51;1.02;;;0.88;;
19802;SDS011;66074;50.764;6.090;2023-06-22T07:36:20;1.92;;;0.65;;
19802;SDS011;66074;50.764;6.090;2023-06-22T07:38:46;0.63;;;0.63;;
19802;SDS011;66074;50.764;6.090;2023-06-22T07:41:12;1.38;;;0.52;;
19802;SDS011;66074;50.764;6.090;2023-06-22T07:43:38;5.38;;;1.73;;
19802;SDS011;66074;50.764;6.090;2023-06-22T07:46:03;1.95;;;1.05;;
19802;SDS011;66074;50.764;6.090;2023-06-22T07:48:36;1.42;;;0.60;;
19802;SDS011;66074;50.764;6.090;2023-06-22T07:51:02;1.55;;;0.73;;
19802;SDS011;66074;50.764;6.090;2023-06-22T07:53:28;0.85;;;0.70;;
19802;SDS011;66074;50.764;6.090;2023-06-22T07:55:54;0.60;;;0.60;;
19802;SDS011;66074;50.764;6.090;2023-06-22T07:58:20;1.10;;;1.00;;
19802;SDS011;66074;50.764;6.090;2023-06-22T08:00:46;0.57;;;0.57;;
19802;SDS011;66074;50.764;6.090;2023-06-22T08:03:14;2.10;;;1.17;;
19802;SDS011;66074;50.764;6.090;2023-06-22T08:05:40;0.45;;;0.43;;
19802;SDS011;66074;50.764;6.090;2023-06-22T08:08:06;0.75;;;0.75;;
19802;SDS011;66074;50.764;6.090;2023-06-22T08:10:34;1.00;;;1.00;;
19802;SDS011;66074;50.764;6.090;2023-06-22T08:13:01;1.15;;;1.05;;
19802;SDS011;66074;50.764;6.090;2023-06-22T08:15:26;1.02;;;0.93;;
19802;SDS011;66074;50.764;6.090;2023-06-22T08:17:52;1.23;;;0.85;;
19802;SDS011;66074;50.764;6.090;2023-06-22T08:20:18;0.82;;;0.60;;
19802;SDS011;66074;50.764;6.090;2023-06-22T08:22:44;2.08;;;0.82;;
19802;SDS011;66074;50.764;6.090;2023-06-22T08:25:10;1.08;;;0.98;;
19802;SDS011;66074;50.764;6.090;2023-06-22T08:27:36;3.47;;;1.33;;
19802;SDS011;66074;50.764;6.090;2023-06-22T08:30:02;1.42;;;0.80;;
19802;SDS011;66074;50.764;6.090;2023-06-22T08:32:28;0.43;;;0.43;;
19802;SDS011;66074;50.764;6.090;2023-06-22T08:34:55;2.92;;;0.80;;
19802;SDS011;66074;50.764;6.090;2023-06-22T08:37:22;1.45;;;0.80;;
19802;SDS011;66074;50.764;6.090;2023-06-22T08:39:58;1.73;;;1.50;;
19802;SDS011;66074;50.764;6.090;2023-06-22T08:42:26;10.60;;;1.45;;
19802;SDS011;66074;50.764;6.090;2023-06-22T08:44:52;2.47;;;1.20;;
19802;SDS011;66074;50.764;6.090;2023-06-22T08:47:19;1.23;;;0.73;;
19802;SDS011;66074;50.764;6.090;2023-06-22T08:49:48;1.70;;;1.23;;
19802;SDS011;66074;50.764;6.090;2023-06-22T08:52:14;5.88;;;1.65;;
19802;SDS011;66074;50.764;6.090;2023-06-22T08:54:40;1.10;;;0.65;;
19802;SDS011;66074;50.764;6.090;2023-06-22T08:57:06;1.55;;;0.95;;
19802;SDS011;66074;50.764;6.090;2023-06-22T08:59:32;0.80;;;0.55;;
19802;SDS011;66074;50.764;6.090;2023-06-22T09:01:57;0.88;;;0.82;;
19802;SDS011;66074;50.764;6.090;2023-06-22T09:04:24;0.77;;;0.57;;
19802;SDS011;66074;50.764;6.090;2023-06-22T09:06:49;1.85;;;1.15;;
19802;SDS011;66074;50.764;6.090;2023-06-22T09:09:17;1.45;;;0.85;;
19802;SDS011;66074;50.764;6.090;2023-06-22T09:11:43;4.63;;;1.38;;
19802;SDS011;66074;50.764;6.090;2023-06-22T09:14:10;1.40;;;0.80;;
19802;SDS011;66074;50.764;6.090;2023-06-22T09:16:36;0.88;;;0.70;;
19802;SDS011;66074;50.764;6.090;2023-06-22T09:19:02;1.33;;;0.90;;
19802;SDS011;66074;50.764;6.090;2023-06-22T09:21:28;0.60;;;0.60;;
19802;SDS011;66074;50.764;6.090;2023-06-22T09:23:54;2.97;;;1.13;;
19802;SDS011;66074;50.764;6.090;2023-06-22T09:26:20;1.33;;;0.90;;
19802;SDS011;66074;50.764;6.090;2023-06-22T09:28:47;1.95;;;1.00;;
19802;SDS011;66074;50.764;6.090;2023-06-22T09:31:13;1.73;;;1.20;;
19802;SDS011;66074;50.764;6.090;2023-06-22T09:33:40;1.05;;;0.80;;
19802;SDS011;66074;50.764;6.090;2023-06-22T09:36:06;0.77;;;0.65;;
19802;SDS011;66074;50.764;6.090;2023-06-22T09:38:35;1.65;;;0.70;;
19802;SDS011;66074;50.764;6.090;2023-06-22T09:41:02;2.03;;;0.60;;
19802;SDS011;66074;50.764;6.090;2023-06-22T09:43:28;1.27;;;0.60;;
19802;SDS011;66074;50.764;6.090;2023-06-22T09:45:53;2.17;;;0.45;;
19802;SDS011;66074;50.764;6.090;2023-06-22T09:48:19;1.17;;;0.75;;
19802;SDS011;66074;50.764;6.090;2023-06-22T09:50:45;1.58;;;0.63;;
19802;SDS011;66074;50.764;6.090;2023-06-22T09:53:13;3.67;;;1.35;;
19802;SDS011;66074;50.764;6.090;2023-06-22T09:55:39;1.48;;;0.98;;
19802;SDS011;66074;50.764;6.090;2023-06-22T09:58:05;2.83;;;0.68;;
19802;SDS011;66074;50.764;6.090;2023-06-22T10:00:30;1.97;;;0.93;;
19802;SDS011;66074;50.764;6.090;2023-06-22T10:02:56;0.77;;;0.57;;
19802;SDS011;66074;50.764;6.090;2023-06-22T10:05:22;3.08;;;1.48;;
19802;SDS011;66074;50.764;6.090;2023-06-22T10:07:48;0.95;;;0.52;;
19802;SDS011;66074;50.764;6.090;2023-06-22T10:10:14;1.33;;;0.80;;
19802;SDS011;66074;50.764;6.090;2023-06-22T10:12:46;0.47;;;0.40;;
19802;SDS011;66074;50.764;6.090;2023-06-22T10:15:14;0.85;;;0.82;;
19802;SDS011;66074;50.764;6.090;2023-06-22T10:17:40;0.88;;;0.80;;
19802;SDS011;66074;50.764;6.090;2023-06-22T10:20:06;1.85;;;0.95;;
19802;SDS011;66074;50.764;6.090;2023-06-22T10:22:41;0.68;;;0.52;;
19802;SDS011;66074;50.764;6.090;2023-06-22T10:25:09;1.25;;;1.15;;
19802;SDS011;66074;50.764;6.090;2023-06-22T10:27:35;2.95;;;1.13;;
19802;SDS011;66074;50.764;6.090;2023-06-22T10:30:01;1.10;;;0.82;;
19802;SDS011;66074;50.764;6.090;2023-06-22T10:32:27;1.63;;;1.17;;
19802;SDS011;66074;50.764;6.090;2023-06-22T10:34:53;6.88;;;0.85;;
19802;SDS011;66074;50.764;6.090;2023-06-22T10:37:19;2.30;;;1.08;;
19802;SDS011;66074;50.764;6.090;2023-06-22T10:39:45;2.50;;;1.42;;
19802;SDS011;66074;50.764;6.090;2023-06-22T10:42:11;1.10;;;1.00;;
19802;SDS011;66074;50.764;6.090;2023-06-22T10:44:37;1.05;;;0.88;;
19802;SDS011;66074;50.764;6.090;2023-06-22T10:47:04;1.30;;;0.90;;
19802;SDS011;66074;50.764;6.090;2023-06-22T10:49:29;0.88;;;0.82;;
19802;SDS011;66074;50.764;6.090;2023-06-22T10:51:55;1.20;;;1.10;;
19802;SDS011;66074;50.764;6.090;2023-06-22T10:54:21;1.63;;;1.33;;
19802;SDS011;66074;50.764;6.090;2023-06-22T10:56:46;1.38;;;1.10;;
19802;SDS011;66074;50.764;6.090;2023-06-22T10:59:12;1.90;;;1.53;;
19802;SDS011;66074;50.764;6.090;2023-06-22T11:01:38;1.85;;;1.17;;
19802;SDS011;66074;50.764;6.090;2023-06-22T11:04:03;0.82;;;0.82;;
19802;SDS011;66074;50.764;6.090;2023-06-22T11:06:29;2.42;;;2.17;;
19802;SDS011;66074;50.764;6.090;2023-06-22T11:08:55;1.25;;;1.10;;
19802;SDS011;66074;50.764;6.090;2023-06-22T11:11:20;2.88;;;2.22;;
19802;SDS011;66074;50.764;6.090;2023-06-22T11:13:49;1.70;;;1.50;;
19802;SDS011;66074;50.764;6.090;2023-06-22T11:16:15;3.53;;;2.35;;
19802;SDS011;66074;50.764;6.090;2023-06-22T11:18:41;1.70;;;1.17;;
19802;SDS011;66074;50.764;6.090;2023-06-22T11:21:09;4.57;;;2.45;;
19802;SDS011;66074;50.764;6.090;2023-06-22T11:23:34;1.88;;;1.55;;
19802;SDS011;66074;50.764;6.090;2023-06-22T11:26:00;1.65;;;1.15;;
19802;SDS011;66074;50.764;6.090;2023-06-22T11:28:27;2.78;;;1.63;;
19802;SDS011;66074;50.764;6.090;2023-06-22T11:30:54;4.80;;;2.15;;
19802;SDS011;66074;50.764;6.090;2023-06-22T11:33:20;3.00;;;1.38;;
19802;SDS011;66074;50.764;6.090;2023-06-22T11:35:46;2.47;;;1.58;;
19802;SDS011;66074;50.764;6.090;2023-06-22T11:38:14;1.75;;;1.13;;
19802;SDS011;66074;50.764;6.090;2023-06-22T11:40:40;6.15;;;1.55;;
19802;SDS011;66074;50.764;6.090;2023-06-22T11:43:16;1.30;;;0.82;;
19802;SDS011;66074;50.764;6.090;2023-06-22T11:45:42;1.83;;;1.58;;
19802;SDS011;66074;50.764;6.090;2023-06-22T11:48:08;1.67;;;1.38;;
19802;SDS011;66074;50.764;6.090;2023-06-22T11:50:33;1.77;;;1.40;;
19802;SDS011;66074;50.764;6.090;2023-06-22T11:53:01;2.50;;;1.58;;
19802;SDS011;66074;50.764;6.090;2023-06-22T11:55:28;2.45;;;1.23;;
19802;SDS011;66074;50.764;6.090;2023-06-22T11:57:54;1.92;;;1.08;;
19802;SDS011;66074;50.764;6.090;2023-06-22T12:00:21;3.13;;;2.03;;
19802;SDS011;66074;50.764;6.090;2023-06-22T12:02:49;2.33;;;1.60;;
19802;SDS011;66074;50.764;6.090;2023-06-22T12:05:16;2.55;;;1.40;;
19802;SDS011;66074;50.764;6.090;2023-06-22T12:07:44;1.65;;;1.30;;
19802;SDS011;66074;50.764;6.090;2023-06-22T12:10:09;1.55;;;1.38;;
19802;SDS011;66074;50.764;6.090;2023-06-22T12:12:35;1.55;;;1.45;;
19802;SDS011;66074;50.764;6.090;2023-06-22T12:15:00;2.35;;;1.38;;
19802;SDS011;66074;50.764;6.090;2023-06-22T12:17:28;3.08;;;1.73;;
19802;SDS011;66074;50.764;6.090;2023-06-22T12:19:58;1.63;;;1.08;;
19802;SDS011;66074;50.764;6.090;2023-06-22T12:22:24;1.98;;;1.73;;
19802;SDS011;66074;50.764;6.090;2023-06-22T12:24:49;3.17;;;1.38;;
19802;SDS011;66074;50.764;6.090;2023-06-22T12:27:16;3.15;;;2.05;;
19802;SDS011;66074;50.764;6.090;2023-06-22T12:29:46;1.40;;;1.27;;
19802;SDS011;66074;50.764;6.090;2023-06-22T12:32:12;5.68;;;1.98;;
19802;SDS011;66074;50.764;6.090;2023-06-22T12:34:39;4.40;;;1.90;;
19802;SDS011;66074;50.764;6.090;2023-06-22T12:37:05;4.00;;;1.77;;
19802;SDS011;66074;50.764;6.090;2023-06-22T12:39:31;2.40;;;1.48;;
19802;SDS011;66074;50.764;6.090;2023-06-22T12:41:57;1.42;;;1.15;;
19802;SDS011;66074;50.764;6.090;2023-06-22T12:44:23;3.83;;;2.88;;
19802;SDS011;66074;50.764;6.090;2023-06-22T12:46:49;2.90;;;1.85;;
19802;SDS011;66074;50.764;6.090;2023-06-22T12:49:31;2.17;;;0.82;;
19802;SDS011;66074;50.764;6.090;2023-06-22T12:51:57;5.20;;;1.65;;
19802;SDS011;66074;50.764;6.090;2023-06-22T12:54:23;3.13;;;2.13;;
19802;SDS011;66074;50.764;6.090;2023-06-22T12:56:50;1.70;;;1.50;;
19802;SDS011;66074;50.764;6.090;2023-06-22T12:59:15;1.58;;;1.40;;
19802;SDS011;66074;50.764;6.090;2023-06-22T13:01:42;1.75;;;1.30;;
19802;SDS011;66074;50.764;6.090;2023-06-22T13:04:10;2.97;;;1.80;;
19802;SDS011;66074;50.764;6.090;2023-06-22T13:06:39;4.72;;;3.00;;
19802;SDS011;66074;50.764;6.090;2023-06-22T13:09:05;2.90;;;2.65;;
19802;SDS011;66074;50.764;6.090;2023-06-22T13:11:31;5.85;;;2.70;;
19802;SDS011;66074;50.764;6.090;2023-06-22T13:13:56;2.80;;;2.08;;
19802;SDS011;66074;50.764;6.090;2023-06-22T13:16:22;4.10;;;2.35;;
19802;SDS011;66074;50.764;6.090;2023-06-22T13:18:48;1.45;;;1.13;;
19802;SDS011;66074;50.764;6.090;2023-06-22T13:21:14;3.13;;;1.45;;
19802;SDS011;66074;50.764;6.090;2023-06-22T13:23:40;1.23;;;0.90;;
19802;SDS011;66074;50.764;6.090;2023-06-22T13:26:05;2.13;;;1.10;;
19802;SDS011;66074;50.764;6.090;2023-06-22T13:28:32;0.98;;;0.90;;
19802;SDS011;66074;50.764;6.090;2023-06-22T13:30:57;1.95;;;1.75;;
19802;SDS011;66074;50.764;6.090;2023-06-22T13:33:23;5.68;;;1.40;;
19802;SDS011;66074;50.764;6.090;2023-06-22T13:35:49;2.33;;;1.27;;
19802;SDS011;66074;50.764;6.090;2023-06-22T13:38:14;3.05;;;1.35;;
19802;SDS011;66074;50.764;6.090;2023-06-22T13:40:40;2.77;;;2.27;;
19802;SDS011;66074;50.764;6.090;2023-06-22T13:43:06;1.42;;;1.33;;
19802;SDS011;66074;50.764;6.090;2023-06-22T13:45:32;3.17;;;2.33;;
19802;SDS011;66074;50.764;6.090;2023-06-22T13:47:57;1.50;;;1.05;;
19802;SDS011;66074;50.764;6.090;2023-06-22T13:50:23;2.03;;;1.75;;
19802;SDS011;66074;50.764;6.090;2023-06-22T13:52:49;3.15;;;1.60;;
19802;SDS011;66074;50.764;6.090;2023-06-22T13:55:15;2.40;;;1.92;;
19802;SDS011;66074;50.764;6.090;2023-06-22T13:57:41;1.60;;;1.48;;
19802;SDS011;66074;50.764;6.090;2023-06-22T14:00:08;2.15;;;1.35;;
19802;SDS011;66074;50.764;6.090;2023-06-22T14:02:35;4.93;;;2.28;;
19802;SDS011;66074;50.764;6.090;2023-06-22T14:05:00;3.58;;;2.05;;
19802;SDS011;66074;50.764;6.090;2023-06-22T14:07:27;3.40;;;2.22;;
19802;SDS011;66074;50.764;6.090;2023-06-22T14:09:53;1.80;;;1.70;;
19802;SDS011;66074;50.764;6.090;2023-06-22T14:12:18;2.78;;;2.33;;
19802;SDS011;66074;50.764;6.090;2023-06-22T14:14:44;1.73;;;1.35;;
19802;SDS011;66074;50.764;6.090;2023-06-22T14:17:10;1.35;;;1.20;;
19802;SDS011;66074;50.764;6.090;2023-06-22T14:19:36;2.63;;;1.65;;
19802;SDS011;66074;50.764;6.090;2023-06-22T14:22:01;4.65;;;2.78;;
19802;SDS011;66074;50.764;6.090;2023-06-22T14:24:27;4.80;;;2.20;;
19802;SDS011;66074;50.764;6.090;2023-06-22T14:26:53;3.60;;;2.30;;
19802;SDS011;66074;50.764;6.090;2023-06-22T14:29:20;2.85;;;2.45;;
19802;SDS011;66074;50.764;6.090;2023-06-22T14:31:46;2.58;;;2.10;;
19802;SDS011;66074;50.764;6.090;2023-06-22T14:34:13;4.05;;;1.98;;
19802;SDS011;66074;50.764;6.090;2023-06-22T14:36:38;3.55;;;2.38;;
19802;SDS011;66074;50.764;6.090;2023-06-22T14:39:04;2.92;;;1.95;;
19802;SDS011;66074;50.764;6.090;2023-06-22T14:41:30;2.75;;;1.77;;
19802;SDS011;66074;50.764;6.090;2023-06-22T14:43:56;2.60;;;1.42;;
19802;SDS011;66074;50.764;6.090;2023-06-22T14:46:22;4.93;;;1.88;;
19802;SDS011;66074;50.764;6.090;2023-06-22T14:48:47;2.42;;;1.73;;